Time;durP1;ratioP1;P1;durP2;ratioP2;P2;SDS_P1;SDS_P2;PMS_P1;PMS_P2;Temp;Humidity;BMP_temperature;BMP_pressure;BME280_temperature;BME280_humidity;BME280_pressure;Samples;Min_cycle;Max_cycle;Signal;HPM_P1;HPM_P2
2023/03/18 00:00:08;;;;;;;9.40;6.10;;;10.60;99.90;;;;;;5049930;28;20189;-88
2023/03/18 00:02:39;;;;;;;11.20;6.40;;;10.60;99.90;;;;;;5045252;28;20417;-90
2023/03/18 00:05:09;;;;;;;9.53;7.23;;;10.60;99.90;;;;;;5045506;28;20219;-90
2023/03/18 00:07:36;;;;;;;10.93;6.53;;;10.60;99.90;;;;;;5055855;28;20186;-88
2023/03/18 00:10:06;;;;;;;12.77;7.37;;;10.50;99.90;;;;;;5044163;28;20189;-89
2023/03/18 00:12:32;;;;;;;9.10;6.33;;;10.50;99.90;;;;;;5033608;28;20701;-88
2023/03/18 00:14:59;;;;;;;8.40;6.83;;;10.50;99.90;;;;;;5053272;28;20192;-88
2023/03/18 00:17:25;;;;;;;10.07;7.87;;;10.50;99.90;;;;;;5042376;28;20217;-90
2023/03/18 00:19:51;;;;;;;11.27;7.43;;;10.50;99.90;;;;;;5049253;28;20289;-89
2023/03/18 00:22:17;;;;;;;12.23;8.30;;;10.60;99.90;;;;;;5055584;28;21019;-89
2023/03/18 00:24:43;;;;;;;14.73;8.30;;;10.60;99.90;;;;;;5058513;28;20200;-91
2023/03/18 00:27:09;;;;;;;14.27;9.70;;;10.60;99.90;;;;;;5056419;28;20193;-91
2023/03/18 00:29:34;;;;;;;15.93;7.57;;;10.70;99.90;;;;;;5053011;28;20178;-89
2023/03/18 00:32:00;;;;;;;13.10;9.27;;;10.80;99.90;;;;;;5041890;28;20189;-89
2023/03/18 00:34:26;;;;;;;12.10;8.27;;;10.80;99.90;;;;;;5064761;28;20200;-87
2023/03/18 00:36:55;;;;;;;9.07;8.03;;;10.70;99.90;;;;;;5025234;28;20217;-90
2023/03/18 00:39:25;;;;;;;13.20;8.60;;;10.70;99.90;;;;;;5061523;28;20245;-91
2023/03/18 00:41:55;;;;;;;17.57;9.70;;;10.70;99.90;;;;;;5055260;28;20608;-90
2023/03/18 00:44:21;;;;;;;13.60;9.53;;;10.70;99.90;;;;;;5043346;28;20643;-90
2023/03/18 00:46:47;;;;;;;11.33;7.13;;;10.70;99.90;;;;;;5041334;28;20276;-90
2023/03/18 00:49:14;;;;;;;6.00;5.43;;;10.60;99.90;;;;;;5057071;28;20263;-89
2023/03/18 00:51:43;;;;;;;15.00;8.27;;;10.60;99.90;;;;;;5043745;28;20185;-90
2023/03/18 00:54:12;;;;;;;11.03;8.23;;;10.70;99.90;;;;;;5057801;28;20300;-91
2023/03/18 00:56:38;;;;;;;11.17;9.60;;;10.70;99.90;;;;;;5082101;28;20209;-90
2023/03/18 00:59:06;;;;;;;19.90;10.50;;;10.60;99.90;;;;;;5053828;28;20174;-90
2023/03/18 01:01:32;;;;;;;12.53;8.20;;;10.60;99.90;;;;;;5053477;28;20208;-90
2023/03/18 01:03:58;;;;;;;11.33;8.30;;;10.60;99.90;;;;;;5054325;28;20194;-90
2023/03/18 01:06:27;;;;;;;17.93;10.43;;;10.50;99.90;;;;;;5058176;28;20200;-90
2023/03/18 01:08:54;;;;;;;19.43;10.17;;;10.60;99.90;;;;;;5064580;28;20646;-90
2023/03/18 01:11:21;;;;;;;13.83;10.30;;;10.60;99.90;;;;;;5058467;28;20193;-90
2023/03/18 01:13:48;;;;;;;13.63;9.63;;;10.50;99.90;;;;;;5055388;28;20193;-90
2023/03/18 01:16:15;;;;;;;20.63;11.60;;;10.50;99.90;;;;;;5055527;28;20352;-89
2023/03/18 01:18:41;;;;;;;14.50;10.43;;;10.40;99.90;;;;;;5039134;28;20181;-90
2023/03/18 01:21:08;;;;;;;16.50;8.43;;;10.40;99.90;;;;;;5040728;28;20291;-90
2023/03/18 01:23:35;;;;;;;12.73;9.57;;;10.40;99.90;;;;;;5057009;28;20190;-90
2023/03/18 01:26:02;;;;;;;22.43;10.67;;;10.40;99.90;;;;;;5056296;28;20277;-90
2023/03/18 01:28:28;;;;;;;11.30;7.23;;;10.30;99.90;;;;;;5056530;28;20185;-90
2023/03/18 01:30:56;;;;;;;13.43;9.33;;;10.20;99.90;;;;;;5035890;28;20189;-90
2023/03/18 01:33:22;;;;;;;19.87;9.13;;;10.10;99.90;;;;;;5057386;28;20193;-89
2023/03/18 01:35:59;;;;;;;15.10;8.37;;;10.10;99.90;;;;;;5055795;28;20263;-90
2023/03/18 01:38:29;;;;;;;14.67;9.83;;;10.00;99.90;;;;;;5058156;28;20320;-90
2023/03/18 01:40:56;;;;;;;14.33;8.20;;;10.00;99.90;;;;;;5058344;28;20177;-90
2023/03/18 01:43:26;;;;;;;10.67;8.87;;;9.90;99.90;;;;;;5058010;28;20209;-89
2023/03/18 01:45:57;;;;;;;15.23;9.47;;;9.90;99.90;;;;;;5054497;28;20190;-89
2023/03/18 01:48:27;;;;;;;13.87;9.93;;;9.80;99.90;;;;;;5054173;28;20190;-90
2023/03/18 01:51:04;;;;;;;13.93;9.13;;;9.80;99.90;;;;;;5056886;28;20182;-90
2023/03/18 01:53:40;;;;;;;23.63;8.87;;;9.70;99.90;;;;;;5057590;28;20185;-91
2023/03/18 01:56:07;;;;;;;13.47;9.93;;;9.60;99.90;;;;;;5058328;28;20266;-90
2023/03/18 01:58:40;;;;;;;12.50;9.33;;;9.60;99.90;;;;;;5056025;28;20189;-90
2023/03/18 02:01:13;;;;;;;13.63;8.20;;;9.50;99.90;;;;;;5052780;28;20251;-88
2023/03/18 02:03:41;;;;;;;17.50;10.97;;;9.50;99.90;;;;;;5080526;28;20190;-90
2023/03/18 02:06:08;;;;;;;14.93;9.77;;;9.40;99.90;;;;;;5048566;28;20227;-88
2023/03/18 02:08:36;;;;;;;13.57;9.60;;;9.30;99.90;;;;;;5056607;28;20214;-88
2023/03/18 02:11:02;;;;;;;12.47;7.87;;;9.30;99.90;;;;;;5055635;28;20185;-88
2023/03/18 02:13:30;;;;;;;17.93;9.53;;;9.20;99.90;;;;;;5040259;28;20196;-89
2023/03/18 02:16:04;;;;;;;12.63;10.63;;;9.10;99.90;;;;;;5021076;28;20688;-89
2023/03/18 02:18:34;;;;;;;13.60;9.13;;;9.10;99.90;;;;;;5063739;28;20182;-89
2023/03/18 02:21:02;;;;;;;10.80;8.47;;;9.00;99.90;;;;;;5063635;28;20242;-88
2023/03/18 02:23:47;;;;;;;16.80;9.50;;;8.90;99.90;;;;;;5057250;28;20281;-89
2023/03/18 02:26:53;;;;;;;10.67;8.93;;;8.80;99.90;;;;;;5056587;28;20826;-88
2023/03/18 02:29:20;;;;;;;8.80;7.97;;;8.80;99.90;;;;;;5055685;28;20184;-91
2023/03/18 02:31:47;;;;;;;13.30;9.93;;;8.70;99.90;;;;;;5050567;28;20198;-89
2023/03/18 02:34:14;;;;;;;14.73;12.10;;;8.70;99.90;;;;;;5059176;28;20255;-91
2023/03/18 02:36:40;;;;;;;10.97;8.97;;;8.60;99.90;;;;;;5057226;28;20332;-90
2023/03/18 02:39:10;;;;;;;17.93;9.70;;;8.60;99.90;;;;;;5053101;28;20283;-90
2023/03/18 02:41:36;;;;;;;15.03;8.13;;;8.50;99.90;;;;;;5054862;28;20193;-88
2023/03/18 02:44:02;;;;;;;19.70;9.20;;;8.50;99.90;;;;;;5045239;28;20186;-89
2023/03/18 02:46:35;;;;;;;13.80;9.57;;;8.50;99.90;;;;;;5050926;28;20575;-90
2023/03/18 02:49:03;;;;;;;21.17;10.93;;;8.40;99.90;;;;;;5054488;28;20189;-88
2023/03/18 02:51:29;;;;;;;13.20;9.83;;;8.40;99.90;;;;;;5053701;28;20193;-89
2023/03/18 02:54:01;;;;;;;13.50;8.10;;;8.40;99.90;;;;;;5029669;28;20196;-88
2023/03/18 02:56:28;;;;;;;14.73;8.67;;;8.40;99.90;;;;;;5056229;28;20253;-90
2023/03/18 02:58:54;;;;;;;14.13;10.30;;;8.30;99.90;;;;;;5055790;28;20196;-88
2023/03/18 03:01:21;;;;;;;17.23;10.90;;;8.30;99.90;;;;;;5043021;28;20661;-89
2023/03/18 03:03:48;;;;;;;11.97;8.97;;;8.30;99.90;;;;;;5045640;28;21200;-90
2023/03/18 03:06:14;;;;;;;19.40;9.17;;;8.30;99.90;;;;;;5051942;28;20701;-88
2023/03/18 03:08:40;;;;;;;13.93;10.87;;;8.30;99.90;;;;;;5053429;28;20661;-88
2023/03/18 03:11:07;;;;;;;12.17;9.13;;;8.20;99.90;;;;;;5055411;28;20189;-88
2023/03/18 03:13:33;;;;;;;14.00;8.67;;;8.20;99.90;;;;;;5044283;28;20244;-89
2023/03/18 03:15:59;;;;;;;11.63;9.37;;;8.20;99.90;;;;;;5050316;28;20222;-90
2023/03/18 03:18:25;;;;;;;13.33;10.20;;;8.20;99.90;;;;;;5056352;28;20189;-89
2023/03/18 03:20:51;;;;;;;16.70;8.90;;;8.10;99.90;;;;;;5054010;28;20198;-88
2023/03/18 03:23:17;;;;;;;13.60;9.27;;;8.10;99.90;;;;;;5061966;28;20212;-88
2023/03/18 03:25:46;;;;;;;14.37;10.37;;;8.10;99.90;;;;;;5036901;28;20612;-89
2023/03/18 03:28:13;;;;;;;19.33;12.07;;;8.00;99.90;;;;;;5036321;28;20248;-88
2023/03/18 03:30:39;;;;;;;15.80;10.37;;;8.00;99.90;;;;;;5049089;28;20182;-88
2023/03/18 03:33:06;;;;;;;18.03;9.67;;;8.00;99.90;;;;;;5057695;28;20272;-87
2023/03/18 03:35:32;;;;;;;23.83;11.90;;;7.90;99.90;;;;;;5056031;28;20201;-87
2023/03/18 03:37:58;;;;;;;16.97;10.10;;;7.90;99.90;;;;;;5056521;28;20185;-90
2023/03/18 03:40:24;;;;;;;16.33;11.07;;;7.90;99.90;;;;;;5045422;28;20453;-87
2023/03/18 03:42:50;;;;;;;14.63;10.13;;;7.90;99.90;;;;;;5055116;28;20201;-88
2023/03/18 03:45:18;;;;;;;16.00;12.10;;;7.80;99.90;;;;;;5059132;28;20587;-89
2023/03/18 03:47:45;;;;;;;11.80;9.50;;;7.80;99.90;;;;;;5047996;28;20185;-87
2023/03/18 03:50:12;;;;;;;16.40;11.30;;;7.80;99.90;;;;;;5059181;28;20193;-87
2023/03/18 03:52:38;;;;;;;11.67;10.47;;;7.70;99.90;;;;;;5056777;28;20250;-87
2023/03/18 03:55:09;;;;;;;11.13;8.63;;;7.70;99.90;;;;;;5058849;28;20181;-88
2023/03/18 03:57:36;;;;;;;16.17;11.30;;;7.60;99.90;;;;;;5055535;28;20513;-89
2023/03/18 04:00:06;;;;;;;13.17;10.27;;;7.60;99.90;;;;;;5057670;28;20189;-88
2023/03/18 04:02:32;;;;;;;13.37;8.97;;;7.70;99.90;;;;;;5058934;28;20548;-88
2023/03/18 04:04:58;;;;;;;15.63;9.07;;;7.80;99.90;;;;;;5054670;28;20198;-88
2023/03/18 04:07:24;;;;;;;11.80;9.00;;;7.80;99.90;;;;;;5058011;28;20200;-88
2023/03/18 04:09:50;;;;;;;13.07;9.60;;;7.80;99.90;;;;;;5050276;28;20189;-88
2023/03/18 04:12:19;;;;;;;15.87;8.87;;;7.80;99.90;;;;;;5065042;28;20178;-89
2023/03/18 04:14:46;;;;;;;17.27;13.33;;;7.90;99.90;;;;;;5058582;28;20182;-88
2023/03/18 04:17:12;;;;;;;16.07;10.70;;;7.90;99.90;;;;;;5054689;28;20697;-89
2023/03/18 04:19:38;;;;;;;13.30;8.93;;;8.00;99.90;;;;;;5038938;28;20659;-87
2023/03/18 04:22:05;;;;;;;30.83;11.23;;;8.10;99.90;;;;;;5056701;28;20181;-88
2023/03/18 04:24:31;;;;;;;15.77;13.17;;;8.10;99.90;;;;;;5061027;28;20186;-88
2023/03/18 04:26:57;;;;;;;16.13;14.23;;;8.20;99.90;;;;;;5032056;28;20238;-88
2023/03/18 04:29:24;;;;;;;17.33;12.07;;;8.20;99.90;;;;;;5058263;28;20202;-89
2023/03/18 04:31:50;;;;;;;12.80;9.30;;;8.30;99.90;;;;;;5054840;28;20193;-88
2023/03/18 04:34:16;;;;;;;14.77;9.13;;;8.30;99.90;;;;;;5042246;28;20186;-88
2023/03/18 04:36:41;;;;;;;15.13;9.50;;;8.20;99.90;;;;;;5027153;28;20214;-88
2023/03/18 04:39:08;;;;;;;15.83;9.73;;;8.20;99.90;;;;;;5041009;28;20241;-88
2023/03/18 04:41:36;;;;;;;18.70;11.93;;;8.20;99.90;;;;;;5059305;28;20201;-88
2023/03/18 04:44:02;;;;;;;16.47;12.57;;;8.10;99.90;;;;;;5055344;28;20565;-88
2023/03/18 04:46:29;;;;;;;14.37;11.03;;;8.10;99.90;;;;;;5042939;28;20205;-88
2023/03/18 04:48:57;;;;;;;15.40;9.87;;;8.20;99.90;;;;;;5047096;28;20182;-87
2023/03/18 04:51:24;;;;;;;21.30;9.97;;;8.20;99.90;;;;;;5058330;28;20248;-86
2023/03/18 04:53:50;;;;;;;19.20;12.00;;;8.10;99.90;;;;;;5056933;28;20284;-89
2023/03/18 04:56:16;;;;;;;26.17;13.33;;;8.10;99.90;;;;;;5048692;28;20209;-88
2023/03/18 04:58:42;;;;;;;15.13;12.50;;;8.10;99.90;;;;;;5060149;28;20189;-87
2023/03/18 05:01:08;;;;;;;17.77;10.80;;;8.10;99.90;;;;;;5055491;28;21633;-90
2023/03/18 05:03:35;;;;;;;15.47;11.30;;;8.10;99.90;;;;;;5055158;28;20602;-87
2023/03/18 05:06:01;;;;;;;13.83;9.87;;;8.20;99.90;;;;;;5058203;28;20235;-87
2023/03/18 05:08:27;;;;;;;21.67;9.93;;;8.10;99.90;;;;;;5058165;28;20213;-89
2023/03/18 05:10:53;;;;;;;9.47;6.70;;;8.10;99.90;;;;;;5058056;28;20640;-86
2023/03/18 05:13:19;;;;;;;12.83;8.03;;;8.10;99.90;;;;;;5057947;28;20206;-89
2023/03/18 05:15:45;;;;;;;9.87;6.73;;;8.20;99.90;;;;;;5055247;28;20213;-88
2023/03/18 05:18:11;;;;;;;7.77;5.80;;;8.10;99.90;;;;;;5040268;28;20560;-87
2023/03/18 05:20:38;;;;;;;14.90;6.50;;;8.10;99.90;;;;;;5059682;28;20213;-87
2023/03/18 05:23:04;;;;;;;10.03;7.67;;;8.20;99.90;;;;;;5058456;28;20197;-87
2023/03/18 05:25:30;;;;;;;7.97;6.60;;;8.20;99.90;;;;;;5055460;28;20194;-86
2023/03/18 05:27:56;;;;;;;14.33;8.07;;;8.10;99.90;;;;;;5041854;28;20553;-87
2023/03/18 05:30:22;;;;;;;7.77;6.10;;;8.20;99.90;;;;;;5046992;28;20190;-89
2023/03/18 05:32:48;;;;;;;13.47;8.73;;;8.20;99.90;;;;;;5055668;28;20619;-86
2023/03/18 05:35:14;;;;;;;7.60;5.43;;;8.30;99.90;;;;;;5054938;28;20196;-88
2023/03/18 05:37:40;;;;;;;12.93;6.50;;;8.20;99.90;;;;;;5041000;28;20246;-89
2023/03/18 05:40:10;;;;;;;6.17;5.23;;;8.20;99.90;;;;;;5056358;28;20261;-89
2023/03/18 05:42:39;;;;;;;15.43;8.40;;;8.20;99.90;;;;;;5058386;28;20709;-89
2023/03/18 05:45:06;;;;;;;9.57;5.27;;;8.20;99.90;;;;;;5059643;28;20892;-86
2023/03/18 05:47:32;;;;;;;8.57;5.80;;;8.20;99.90;;;;;;5052418;28;20198;-89
2023/03/18 05:49:58;;;;;;;8.53;5.10;;;8.30;99.90;;;;;;5058097;28;20177;-87
2023/03/18 05:52:24;;;;;;;10.70;6.90;;;8.30;99.90;;;;;;5056180;28;20198;-86
2023/03/18 05:54:50;;;;;;;21.10;7.13;;;8.30;99.90;;;;;;5048166;28;20200;-89
2023/03/18 05:57:16;;;;;;;12.00;4.80;;;8.30;99.90;;;;;;5056837;28;20217;-88
2023/03/18 05:59:42;;;;;;;8.03;5.57;;;8.30;99.90;;;;;;5039964;28;20255;-88
2023/03/18 06:02:09;;;;;;;20.80;4.90;;;8.30;99.90;;;;;;5054820;28;20189;-89
2023/03/18 06:04:36;;;;;;;9.03;5.17;;;8.40;99.90;;;;;;5062321;28;20200;-87
2023/03/18 06:07:02;;;;;;;26.07;7.47;;;8.40;99.90;;;;;;5057840;28;20190;-88
2023/03/18 06:09:29;;;;;;;5.93;5.00;;;8.50;99.90;;;;;;5056897;28;20190;-88
2023/03/18 06:11:56;;;;;;;10.23;4.73;;;8.50;99.90;;;;;;5057745;28;20726;-88
2023/03/18 06:14:24;;;;;;;6.17;5.10;;;8.40;99.90;;;;;;5058553;28;20193;-87
2023/03/18 06:16:50;;;;;;;6.40;4.17;;;8.40;99.90;;;;;;5053596;28;20275;-88
2023/03/18 06:19:16;;;;;;;7.97;4.80;;;8.50;99.90;;;;;;5054312;28;20505;-87
2023/03/18 06:21:41;;;;;;;7.73;4.83;;;8.50;99.90;;;;;;5058131;28;20194;-89
2023/03/18 06:24:08;;;;;;;6.27;3.90;;;8.50;99.90;;;;;;5055369;28;20692;-87
2023/03/18 06:26:34;;;;;;;6.30;4.57;;;8.50;99.90;;;;;;5036585;28;20198;-88
2023/03/18 06:28:59;;;;;;;6.67;4.40;;;8.50;99.90;;;;;;5056543;28;20243;-87
2023/03/18 06:31:26;;;;;;;5.63;4.63;;;8.60;99.90;;;;;;5054305;28;20224;-87
2023/03/18 06:33:52;;;;;;;7.37;4.20;;;8.60;99.90;;;;;;5051615;28;20276;-87
2023/03/18 06:36:18;;;;;;;11.73;3.13;;;8.60;99.90;;;;;;5053506;28;20260;-88
2023/03/18 06:38:44;;;;;;;9.87;5.40;;;8.70;99.90;;;;;;5055519;28;20567;-89
2023/03/18 06:41:10;;;;;;;9.40;4.50;;;8.70;99.90;;;;;;5054507;28;20357;-89
2023/03/18 06:43:37;;;;;;;19.63;4.93;;;8.80;99.90;;;;;;5052365;28;20204;-88
2023/03/18 06:46:03;;;;;;;8.00;5.07;;;8.90;99.90;;;;;;5052400;28;20240;-89
2023/03/18 06:48:29;;;;;;;16.03;6.63;;;9.00;99.90;;;;;;5034888;28;20850;-89
2023/03/18 06:50:55;;;;;;;18.10;6.07;;;9.00;99.90;;;;;;5052747;28;20264;-89
2023/03/18 06:53:21;;;;;;;11.07;4.70;;;9.10;99.90;;;;;;5054808;28;20229;-89
2023/03/18 06:55:48;;;;;;;10.20;7.10;;;9.20;99.90;;;;;;5052923;28;20213;-89
2023/03/18 06:58:14;;;;;;;10.50;4.97;;;9.20;99.90;;;;;;5053136;28;20188;-86
2023/03/18 07:00:44;;;;;;;6.63;4.20;;;9.30;99.90;;;;;;5054868;28;20201;-87
2023/03/18 07:03:10;;;;;;;14.80;7.87;;;9.40;99.90;;;;;;5048725;28;20195;-89
2023/03/18 07:05:36;;;;;;;28.07;8.63;;;9.40;99.90;;;;;;5052469;28;20208;-86
2023/03/18 07:08:01;;;;;;;11.50;6.57;;;9.50;99.90;;;;;;5055984;28;20298;-87
2023/03/18 07:10:29;;;;;;;16.80;9.47;;;9.50;99.90;;;;;;5039372;28;20227;-87
2023/03/18 07:12:55;;;;;;;11.37;8.97;;;9.60;99.90;;;;;;5038013;28;20555;-89
2023/03/18 07:15:22;;;;;;;17.27;8.57;;;9.70;99.90;;;;;;5056230;28;20251;-89
2023/03/18 07:17:49;;;;;;;18.00;10.37;;;9.80;99.90;;;;;;5053800;28;20225;-86
2023/03/18 07:20:15;;;;;;;18.90;10.23;;;9.90;99.90;;;;;;5038662;28;20575;-88
2023/03/18 07:22:43;;;;;;;14.77;10.67;;;10.00;99.90;;;;;;5055840;28;20190;-89
2023/03/18 07:25:10;;;;;;;19.17;12.53;;;10.10;99.90;;;;;;5056018;28;20246;-90
2023/03/18 07:27:36;;;;;;;15.53;11.70;;;10.10;99.90;;;;;;5046312;28;20289;-85
2023/03/18 07:30:03;;;;;;;17.30;9.87;;;10.20;99.90;;;;;;5052178;28;20699;-84
2023/03/18 07:32:29;;;;;;;30.43;10.30;;;10.20;99.90;;;;;;5050300;28;20732;-87
2023/03/18 07:34:56;;;;;;;19.77;11.63;;;10.20;99.90;;;;;;5050798;28;20194;-87
2023/03/18 07:37:22;;;;;;;19.20;9.10;;;10.20;99.90;;;;;;5033935;28;20209;-87
2023/03/18 07:39:48;;;;;;;16.27;11.00;;;10.20;99.90;;;;;;5049038;28;20242;-87
2023/03/18 07:42:14;;;;;;;16.13;9.13;;;10.30;99.90;;;;;;5051585;28;20197;-85
2023/03/18 07:44:43;;;;;;;13.50;11.47;;;10.30;99.90;;;;;;5038197;28;20199;-84
2023/03/18 07:47:09;;;;;;;18.03;11.60;;;10.30;99.90;;;;;;5049690;28;20194;-85
2023/03/18 07:49:34;;;;;;;15.80;10.53;;;10.30;99.90;;;;;;5050309;28;20775;-87
2023/03/18 07:52:01;;;;;;;21.67;14.77;;;10.50;99.90;;;;;;5049655;28;20198;-86
2023/03/18 07:54:26;;;;;;;21.50;15.47;;;10.50;99.90;;;;;;5059544;28;20619;-87
2023/03/18 07:56:52;;;;;;;23.30;16.30;;;10.50;99.90;;;;;;5054755;28;20316;-87
2023/03/18 07:59:19;;;;;;;18.80;13.03;;;10.60;99.90;;;;;;5050433;28;20701;-87
2023/03/18 08:01:45;;;;;;;14.17;11.07;;;10.60;99.90;;;;;;5053652;28;20223;-85
2023/03/18 08:04:11;;;;;;;30.90;15.77;;;10.70;99.90;;;;;;5051390;28;20497;-86
2023/03/18 08:06:37;;;;;;;32.37;19.30;;;10.80;99.90;;;;;;5044001;28;20194;-88
2023/03/18 08:09:04;;;;;;;41.03;20.37;;;10.90;99.90;;;;;;5057666;28;20217;-86
2023/03/18 08:11:32;;;;;;;30.73;17.57;;;11.10;99.90;;;;;;5055233;28;20212;-86
2023/03/18 08:13:58;;;;;;;43.10;28.33;;;11.10;99.90;;;;;;5037362;28;20194;-87
2023/03/18 08:16:24;;;;;;;33.40;21.30;;;11.30;99.90;;;;;;5053757;28;20259;-86
2023/03/18 08:18:50;;;;;;;27.03;18.13;;;11.40;99.90;;;;;;5041326;28;20264;-87
2023/03/18 08:21:16;;;;;;;27.37;16.27;;;11.50;99.90;;;;;;5061439;28;20182;-85
2023/03/18 08:23:42;;;;;;;30.47;18.47;;;11.60;99.90;;;;;;5042637;28;20189;-86
2023/03/18 08:26:08;;;;;;;33.40;19.40;;;11.80;99.90;;;;;;5053688;28;20197;-87
2023/03/18 08:28:34;;;;;;;40.93;17.17;;;11.80;99.90;;;;;;5055003;28;20626;-86
2023/03/18 08:31:00;;;;;;;22.07;16.63;;;11.90;99.90;;;;;;5056523;28;20207;-87
2023/03/18 08:33:26;;;;;;;23.30;17.03;;;11.80;99.90;;;;;;5056949;28;20462;-86
2023/03/18 08:35:54;;;;;;;19.20;15.03;;;11.80;99.90;;;;;;5055518;28;20335;-88
2023/03/18 08:38:22;;;;;;;18.37;13.03;;;11.80;99.90;;;;;;5057491;28;20197;-88
2023/03/18 08:40:49;;;;;;;17.87;13.73;;;11.80;99.90;;;;;;5064598;28;20223;-85
2023/03/18 08:43:15;;;;;;;20.70;14.17;;;11.90;99.90;;;;;;5057134;28;20187;-84
2023/03/18 08:45:40;;;;;;;28.73;13.83;;;11.90;99.90;;;;;;5056790;28;20190;-85
2023/03/18 08:48:06;;;;;;;24.73;13.50;;;11.90;99.90;;;;;;5045698;28;20190;-86
2023/03/18 08:50:34;;;;;;;20.73;13.93;;;11.80;99.90;;;;;;5062986;28;20534;-85
2023/03/18 08:53:01;;;;;;;16.93;13.10;;;11.80;99.90;;;;;;5038243;28;20215;-87
2023/03/18 08:55:38;;;;;;;21.20;14.53;;;11.90;99.90;;;;;;5048748;28;20182;-84
2023/03/18 08:58:06;;;;;;;20.23;10.30;;;12.00;99.90;;;;;;5064150;28;20190;-83
2023/03/18 09:00:35;;;;;;;17.83;13.33;;;12.20;99.90;;;;;;5055279;28;20181;-85
2023/03/18 09:03:02;;;;;;;16.80;14.93;;;12.40;99.90;;;;;;5054109;28;20719;-85
2023/03/18 09:05:29;;;;;;;18.57;12.93;;;12.50;99.90;;;;;;5075563;28;20215;-82
2023/03/18 09:07:55;;;;;;;28.10;18.40;;;12.60;99.90;;;;;;5054055;28;20660;-83
2023/03/18 09:10:21;;;;;;;21.17;12.27;;;12.70;99.90;;;;;;5064718;28;20181;-86
2023/03/18 09:12:48;;;;;;;16.80;11.30;;;12.80;99.90;;;;;;5046870;28;20182;-85
2023/03/18 09:15:15;;;;;;;20.87;12.73;;;12.60;99.90;;;;;;5047020;28;20224;-88
2023/03/18 09:17:41;;;;;;;15.40;11.00;;;12.60;99.90;;;;;;5057545;28;20336;-83
2023/03/18 09:20:09;;;;;;;15.37;11.67;;;12.70;99.90;;;;;;5037674;28;20220;-84
2023/03/18 09:22:35;;;;;;;14.97;9.93;;;12.80;99.90;;;;;;5079918;28;20177;-88
2023/03/18 09:25:01;;;;;;;12.13;10.27;;;12.80;99.90;;;;;;5056220;28;20205;-87
2023/03/18 09:27:27;;;;;;;13.43;10.27;;;13.00;99.90;;;;;;5056502;28;20636;-84
2023/03/18 09:29:53;;;;;;;10.27;9.10;;;13.10;99.90;;;;;;5055532;28;20719;-86
2023/03/18 09:32:19;;;;;;;21.60;11.17;;;13.30;99.90;;;;;;5044846;28;20190;-84
2023/03/18 09:34:45;;;;;;;19.13;10.97;;;13.50;99.90;;;;;;5057264;28;20182;-83
2023/03/18 09:37:12;;;;;;;13.87;9.70;;;13.70;99.90;;;;;;5046132;28;20283;-85
2023/03/18 09:39:38;;;;;;;22.97;10.40;;;13.70;99.90;;;;;;5055277;28;20347;-83
2023/03/18 09:42:35;;;;;;;11.87;8.27;;;13.60;99.90;;;;;;5037888;28;20200;-86
2023/03/18 09:45:09;;;;;;;9.00;7.97;;;13.70;99.90;;;;;;5055982;28;20281;-86
2023/03/18 09:48:09;;;;;;;8.13;7.27;;;13.70;99.90;;;;;;5058075;28;20189;-84
2023/03/18 09:50:42;;;;;;;13.30;8.23;;;13.70;99.90;;;;;;5050666;28;20182;-83
2023/03/18 09:53:38;;;;;;;7.97;6.27;;;13.90;99.90;;;;;;5057097;28;20224;-84
2023/03/18 09:56:09;;;;;;;8.50;7.17;;;14.10;99.90;;;;;;5052283;28;20220;-87
2023/03/18 09:58:47;;;;;;;9.20;7.97;;;14.20;99.90;;;;;;5056522;28;20271;-84
2023/03/18 10:01:14;;;;;;;12.47;7.27;;;14.30;99.90;;;;;;5057994;28;20181;-83
2023/03/18 10:03:50;;;;;;;13.97;8.43;;;14.30;99.90;;;;;;5055671;28;20226;-84
2023/03/18 10:06:22;;;;;;;14.33;7.80;;;14.50;99.90;;;;;;5055668;28;20208;-84
2023/03/18 10:08:56;;;;;;;11.47;7.10;;;14.70;99.90;;;;;;5053733;28;20240;-86
2023/03/18 10:11:34;;;;;;;11.47;6.43;;;14.60;99.90;;;;;;5055863;28;20196;-88
2023/03/18 10:14:22;;;;;;;16.13;6.60;;;14.80;99.90;;;;;;5054950;28;20793;-84
2023/03/18 10:17:06;;;;;;;5.53;4.97;;;15.10;99.90;;;;;;5057887;28;20201;-82
2023/03/18 10:19:33;;;;;;;11.60;7.73;;;15.10;99.90;;;;;;5052391;28;20725;-85
2023/03/18 10:22:25;;;;;;;9.40;6.03;;;14.90;99.90;;;;;;5055476;28;20190;-85
2023/03/18 10:24:57;;;;;;;7.43;6.60;;;15.00;99.90;;;;;;5057450;28;20197;-84
2023/03/18 10:27:50;;;;;;;12.93;6.93;;;15.10;99.90;;;;;;5054423;28;20238;-85
2023/03/18 10:30:26;;;;;;;9.20;5.93;;;15.60;99.90;;;;;;5056032;28;20251;-83
2023/03/18 10:33:16;;;;;;;8.80;5.53;;;16.10;99.90;;;;;;5060078;28;20194;-85
2023/03/18 10:35:58;;;;;;;9.47;7.63;;;16.60;99.90;;;;;;5051216;28;20244;-84
2023/03/18 10:38:36;;;;;;;9.40;4.47;;;17.10;99.90;;;;;;5054201;28;20193;-86
2023/03/18 10:41:18;;;;;;;4.23;3.73;;;17.90;99.90;;;;;;5063725;28;20199;-89
2023/03/18 10:43:46;;;;;;;4.83;3.07;;;18.90;99.90;;;;;;5063598;28;20304;-86
2023/03/18 10:46:15;;;;;;;4.17;3.37;;;19.70;99.90;;;;;;5060884;28;20212;-87
2023/03/18 10:48:53;;;;;;;4.00;2.97;;;20.50;99.90;;;;;;5061449;28;20198;-87
2023/03/18 10:51:48;;;;;;;5.47;3.20;;;20.50;99.90;;;;;;5056412;28;20185;-86
2023/03/18 10:54:45;;;;;;;3.77;2.30;;;19.10;99.90;;;;;;5057465;28;20480;-86
2023/03/18 10:57:15;;;;;;;3.73;2.93;;;18.50;99.90;;;;;;5061157;28;20209;-85
2023/03/18 10:59:46;;;;;;;5.03;3.70;;;18.70;99.90;;;;;;5053577;28;20277;-85
2023/03/18 11:02:24;;;;;;;5.53;4.30;;;19.10;99.90;;;;;;5053081;28;20177;-86
2023/03/18 11:05:00;;;;;;;5.20;3.40;;;19.90;99.90;;;;;;5051509;28;20486;-85
2023/03/18 11:07:27;;;;;;;3.77;3.40;;;20.70;99.90;;;;;;5056767;28;20185;-87
2023/03/18 11:10:01;;;;;;;3.80;3.30;;;20.90;99.90;;;;;;5055954;28;20228;-85
2023/03/18 11:12:28;;;;;;;3.83;2.67;;;21.40;99.90;;;;;;5038341;28;20193;-85
2023/03/18 11:14:55;;;;;;;4.30;3.30;;;22.50;99.90;;;;;;5037196;28;20188;-86
2023/03/18 11:17:32;;;;;;;3.33;2.77;;;23.40;99.90;;;;;;5055986;28;20217;-87
2023/03/18 11:20:29;;;;;;;4.97;3.10;;;23.60;99.90;;;;;;5050591;28;20189;-85
2023/03/18 11:23:11;;;;;;;4.20;3.00;;;23.90;99.90;;;;;;5051327;28;20193;-85
2023/03/18 11:25:37;;;;;;;5.20;3.10;;;23.80;99.90;;;;;;5054943;28;20601;-87
2023/03/18 11:28:06;;;;;;;2.40;1.80;;;23.10;99.90;;;;;;5054880;28;20232;-89
2023/03/18 11:30:45;;;;;;;2.77;1.87;;;21.90;99.90;;;;;;5055540;28;20204;-88
2023/03/18 11:33:11;;;;;;;2.53;2.30;;;21.40;99.90;;;;;;5053676;28;20631;-85
2023/03/18 11:35:44;;;;;;;3.30;2.10;;;21.20;99.90;;;;;;5051160;28;20220;-86
2023/03/18 11:38:20;;;;;;;3.10;1.63;;;21.10;99.90;;;;;;5052960;28;20193;-85
2023/03/18 11:40:46;;;;;;;2.63;1.50;;;21.00;99.90;;;;;;5060529;28;20284;-86
2023/03/18 11:43:21;;;;;;;1.63;1.40;;;20.70;99.90;;;;;;5049575;28;20224;-90
2023/03/18 11:46:17;;;;;;;2.07;1.87;;;20.70;99.90;;;;;;5051487;28;20177;-86
2023/03/18 11:48:43;;;;;;;1.93;1.10;;;20.70;99.90;;;;;;5054201;28;20205;-86
2023/03/18 11:51:43;;;;;;;1.33;1.23;;;21.00;99.90;;;;;;5049259;28;20256;-85
2023/03/18 11:54:26;;;;;;;3.00;1.47;;;21.10;99.90;;;;;;5053931;28;20177;-84
2023/03/18 11:56:54;;;;;;;1.57;1.47;;;21.00;99.90;;;;;;5052784;28;20196;-84
2023/03/18 11:59:20;;;;;;;2.47;1.77;;;20.20;99.90;;;;;;5050609;28;20176;-85
2023/03/18 12:02:03;;;;;;;5.67;1.77;;;19.50;99.90;;;;;;5073307;28;20189;-84
2023/03/18 12:04:35;;;;;;;2.50;1.33;;;19.50;99.90;;;;;;5060327;28;20204;-84
2023/03/18 12:07:25;;;;;;;2.57;1.37;;;19.60;99.90;;;;;;5052772;28;20570;-87
2023/03/18 12:10:02;;;;;;;4.17;1.83;;;19.80;99.90;;;;;;5050398;28;20248;-84
2023/03/18 12:12:50;;;;;;;1.83;1.70;;;20.00;99.90;;;;;;5056588;28;20189;-84
2023/03/18 12:15:35;;;;;;;2.97;2.07;;;19.80;99.90;;;;;;5063917;28;20190;-85
2023/03/18 12:18:25;;;;;;;3.43;2.10;;;19.70;99.90;;;;;;5056782;28;20185;-88
2023/03/18 12:21:14;;;;;;;2.77;1.80;;;19.30;99.90;;;;;;5049064;28;20547;-87
2023/03/18 12:24:04;;;;;;;2.53;1.60;;;19.20;99.90;;;;;;5040332;28;20198;-87
2023/03/18 12:26:58;;;;;;;2.33;1.50;;;19.10;99.90;;;;;;5062760;28;20209;-86
2023/03/18 12:29:52;;;;;;;2.37;1.50;;;19.40;99.90;;;;;;5059116;28;20390;-85
2023/03/18 12:32:46;;;;;;;3.60;1.40;;;19.70;99.90;;;;;;5063316;28;20192;-86
2023/03/18 12:35:24;;;;;;;2.47;1.23;;;19.20;99.90;;;;;;5055807;28;20189;-83
2023/03/18 12:37:59;;;;;;;2.60;1.60;;;18.70;99.90;;;;;;5053537;28;20942;-86
2023/03/18 12:40:32;;;;;;;1.00;1.00;;;18.60;99.90;;;;;;5055531;28;20229;-84
2023/03/18 12:42:58;;;;;;;1.20;1.10;;;18.20;99.90;;;;;;5054694;28;20200;-87
2023/03/18 12:45:29;;;;;;;2.07;1.67;;;17.90;99.90;;;;;;5053813;28;20189;-84
2023/03/18 12:48:11;;;;;;;3.53;1.70;;;17.90;99.90;;;;;;5062865;28;20216;-86
2023/03/18 12:50:48;;;;;;;3.40;1.83;;;17.90;99.90;;;;;;5048267;28;20182;-85
2023/03/18 12:53:24;;;;;;;2.60;1.60;;;17.70;99.90;;;;;;5056824;28;20630;-82